Taganrog Yuzhny Airport

Jump to: basic info | weather | comments

Related pages: nearby airports | nearby navaids | notams | map

Basic information (top)

Codes: TGK URRT
Location: lon 47.200001, lat 38.849998, elev 118 ft / 36 m msl
Status: medium_airport

Weather (top)

Current conditions for Rostov-na-Donu Airport 40nm (73km) E (rec'd 2015/04/25 21:30Z):

URRR 252130Z 26007G10MPS 240V300 P8000 NSC 10/06 Q1018 22CLRD70 NOSIG

Airport forecast for Rostov-na-Donu Airport 40nm (73km) E (rec'd 2015/04/25 21:00Z):

TAF URRR 252000Z 2521/2621 25006G11MPS 9999 SCT020 530005 PROB40 
      TEMPO 2521/2524 -SHRA SCT020CB 
      TEMPO 2600/2606 2100 BR BKN007

Latest comments (top)

dgs: gsdg [read]

More... (top)

See also NOTAMs and nearby airports and navaids, or visit the Taganrog Yuzhny Airport page at the main OurAirports website..